Cape Sakura — 7JHZ — position and weather

sailwx.info

Track history (hours):
 
Tides and Currents Weather Stations Pressure Air Temp Water Temp Dewpoint Dewpoint Depression Visibility Wind Speed Wind Dir Waves Ship Positions

Cape Sakura

Last reported at 2015-Apr-20 00:13 UTC. Time now 2015-May-05 00:13 UTC.
Position S 26°45' E 154°02'.
Warning: this ship's position is 15 days out of date.

Length 292 m; draft 15.6 m.

Type: Cargo ship. MMSI: 432786000.

Date/timePositionNaut miles runAvg speedWind from/ knotsBaromVisibWave heightAir tempDewpointWater temp
2015-Apr-20 00:13S 26°45' E 154°02'711.1
2015-Apr-19 23:33S 26°53' E 154°02'1611.9
2015-Apr-19 22:12S 27°09' E 154°03'1311.9
2015-Apr-19 21:09S 27°21' E 154°04'811.9
2015-Apr-19 20:28S 27°29' E 154°04'1111.9
2015-Apr-19 19:32S 27°40' E 154°03'28910.3
2015-Apr-18 15:33S 32°22' E 152°48'1111.2
2015-Apr-18 14:33S 32°32' E 152°42'1211.7
2015-Apr-18 13:33S 32°40' E 152°31'1212.0
2015-Apr-18 12:34S 32°47' E 152°20'1211.9
2015-Apr-18 11:33S 32°53' E 152°08'1212.1
2015-Apr-18 10:33S 32°56' E 151°53'6 6.0
2015-Apr-18 09:33S 32°55' E 151°46'2 1.7
2015-Apr-18 08:31S 32°53' E 151°46'0 0.0
2015-Apr-18 07:31S 32°53' E 151°46'0 0.0
2015-Apr-18 06:19S 32°53' E 151°46'0 0.0
2015-Apr-18 05:25S 32°53' E 151°46'0 0.0
2015-Apr-18 04:22S 32°53' E 151°46'0 0.0
2015-Apr-18 03:28S 32°53' E 151°46'0 0.0
2015-Apr-18 02:28S 32°53' E 151°46'0 0.0
2015-Apr-18 01:29S 32°53' E 151°46'0 0.0
2015-Apr-18 00:28S 32°53' E 151°46'0 0.0
2015-Apr-17 23:28S 32°53' E 151°46'0 0.0
2015-Apr-17 22:31S 32°53' E 151°46'0 0.0
2015-Apr-17 21:31S 32°53' E 151°46'0 0.0
2015-Apr-17 20:31S 32°53' E 151°46'0 0.0
2015-Apr-17 19:31S 32°53' E 151°46'0 0.0
2015-Apr-17 18:31S 32°53' E 151°46'0 0.0
2015-Apr-17 17:31S 32°53' E 151°46'0 0.0
2015-Apr-17 16:28S 32°53' E 151°46'0 0.0
2015-Apr-17 15:31S 32°53' E 151°46'0 0.0
2015-Apr-17 14:31S 32°53' E 151°46'0 0.0
2015-Apr-17 13:28S 32°53' E 151°46'0 0.0
2015-Apr-17 12:31S 32°53' E 151°46'0 0.0
2015-Apr-17 11:31S 32°53' E 151°46'0 0.0
2015-Apr-17 10:31S 32°53' E 151°46'0 0.0
2015-Apr-17 09:31S 32°53' E 151°46'0 0.0
2015-Apr-17 08:28S 32°53' E 151°46'0 0.0
2015-Apr-17 07:31S 32°53' E 151°46'0 0.0
2015-Apr-17 06:31S 32°53' E 151°46'0 0.0
2015-Apr-17 05:31S 32°53' E 151°46'0 0.0
2015-Apr-17 04:31S 32°53' E 151°46'0 0.0
2015-Apr-17 03:31S 32°53' E 151°46'0 0.0
2015-Apr-17 02:31S 32°53' E 151°46'0 0.0
2015-Apr-17 01:31S 32°53' E 151°46'0 0.0
2015-Apr-17 00:31S 32°53' E 151°46'0 0.0
2015-Apr-16 23:31S 32°53' E 151°46'0 0.0
2015-Apr-16 22:28S 32°53' E 151°46'0 0.1
2015-Apr-16 21:33S 32°53' E 151°46'4 3.5
2015-Apr-16 20:33S 32°55' E 151°49'7 7.0
2015-Apr-16 19:33S 33°01' E 151°52'8 7.8
2015-Apr-16 18:33S 33°08' E 151°47'8 1.5
2015-Apr-16 13:17S 33°16' E 151°50'1 0.7
2015-Apr-16 12:29S 33°16' E 151°50'1 0.7
2015-Apr-16 11:32S 33°17' E 151°51'0 0.5
2015-Apr-16 10:32S 33°17' E 151°51'1 0.7
2015-Apr-16 09:32S 33°17' E 151°52'1 0.9
2015-Apr-16 08:32S 33°16' E 151°53'1 0.9
2015-Apr-16 07:32S 33°16' E 151°54'1 0.9
2015-Apr-16 06:32S 33°17' E 151°55'1 1.0
2015-Apr-16 05:32S 33°16' E 151°56'1 1.0
2015-Apr-16 04:32S 33°17' E 151°58'2 2.0
2015-Apr-16 03:33S 33°16' E 151°60'1212.4
2015-Apr-16 02:34S 33°18' E 152°15'1313.0
2015-Apr-16 01:33S 33°27' E 152°26'3 2.7
2015-Apr-16 00:33S 33°27' E 152°29'1313.3
2015-Apr-15 23:33S 33°14' E 152°26'1313.3
2015-Apr-15 22:33S 33°00' E 152°24'1313.0
2015-Apr-15 21:33S 32°52' E 152°36'1413.7
2015-Apr-15 20:34S 32°44' E 152°50'1514.8
2015-Apr-15 19:33S 32°33' E 153°00'2315.6
2015-Apr-15 18:06S 32°14' E 153°16'  
Track history (hours):
 
Tides and Currents Weather Stations Pressure Air Temp Water Temp Dewpoint Dewpoint Depression Visibility Wind Speed Wind Dir Waves Ship Positions

Cape Sakura

Last reported at 2015-Apr-20 00:13 UTC. Time now 2015-May-05 00:13 UTC.
Position S 26°45' E 154°02'.
Warning: this ship's position is 15 days out of date.

Length 292 m; draft 15.6 m.

Type: Cargo ship. MMSI: 432786000.

Date/timePositionNaut miles runAvg speedWind from/ knotsBaromVisibWave heightAir tempDewpointWater temp
2015-Apr-20 00:13S 26°45' E 154°02'711.1
2015-Apr-19 23:33S 26°53' E 154°02'1611.9
2015-Apr-19 22:12S 27°09' E 154°03'1311.9
2015-Apr-19 21:09S 27°21' E 154°04'811.9
2015-Apr-19 20:28S 27°29' E 154°04'1111.9
2015-Apr-19 19:32S 27°40' E 154°03'28910.3
2015-Apr-18 15:33S 32°22' E 152°48'1111.2
2015-Apr-18 14:33S 32°32' E 152°42'1211.7
2015-Apr-18 13:33S 32°40' E 152°31'1212.0
2015-Apr-18 12:34S 32°47' E 152°20'1211.9
2015-Apr-18 11:33S 32°53' E 152°08'1212.1
2015-Apr-18 10:33S 32°56' E 151°53'6 6.0
2015-Apr-18 09:33S 32°55' E 151°46'2 1.7
2015-Apr-18 08:31S 32°53' E 151°46'0 0.0
2015-Apr-18 07:31S 32°53' E 151°46'0 0.0
2015-Apr-18 06:19S 32°53' E 151°46'0 0.0
2015-Apr-18 05:25S 32°53' E 151°46'0 0.0
2015-Apr-18 04:22S 32°53' E 151°46'0 0.0
2015-Apr-18 03:28S 32°53' E 151°46'0 0.0
2015-Apr-18 02:28S 32°53' E 151°46'0 0.0
2015-Apr-18 01:29S 32°53' E 151°46'0 0.0
2015-Apr-18 00:28S 32°53' E 151°46'0 0.0
2015-Apr-17 23:28S 32°53' E 151°46'0 0.0
2015-Apr-17 22:31S 32°53' E 151°46'0 0.0
2015-Apr-17 21:31S 32°53' E 151°46'0 0.0
2015-Apr-17 20:31S 32°53' E 151°46'0 0.0
2015-Apr-17 19:31S 32°53' E 151°46'0 0.0
2015-Apr-17 18:31S 32°53' E 151°46'0 0.0
2015-Apr-17 17:31S 32°53' E 151°46'0 0.0
2015-Apr-17 16:28S 32°53' E 151°46'0 0.0
2015-Apr-17 15:31S 32°53' E 151°46'0 0.0
2015-Apr-17 14:31S 32°53' E 151°46'0 0.0
2015-Apr-17 13:28S 32°53' E 151°46'0 0.0
2015-Apr-17 12:31S 32°53' E 151°46'0 0.0
2015-Apr-17 11:31S 32°53' E 151°46'0 0.0
2015-Apr-17 10:31S 32°53' E 151°46'0 0.0
2015-Apr-17 09:31S 32°53' E 151°46'0 0.0
2015-Apr-17 08:28S 32°53' E 151°46'0 0.0
2015-Apr-17 07:31S 32°53' E 151°46'0 0.0
2015-Apr-17 06:31S 32°53' E 151°46'0 0.0
2015-Apr-17 05:31S 32°53' E 151°46'0 0.0
2015-Apr-17 04:31S 32°53' E 151°46'0 0.0
2015-Apr-17 03:31S 32°53' E 151°46'0 0.0
2015-Apr-17 02:31S 32°53' E 151°46'0 0.0
2015-Apr-17 01:31S 32°53' E 151°46'0 0.0
2015-Apr-17 00:31S 32°53' E 151°46'0 0.0
2015-Apr-16 23:31S 32°53' E 151°46'0 0.0
2015-Apr-16 22:28S 32°53' E 151°46'0 0.1
2015-Apr-16 21:33S 32°53' E 151°46'4 3.5
2015-Apr-16 20:33S 32°55' E 151°49'7 7.0
2015-Apr-16 19:33S 33°01' E 151°52'8 7.8
2015-Apr-16 18:33S 33°08' E 151°47'8 1.5
2015-Apr-16 13:17S 33°16' E 151°50'1 0.7
2015-Apr-16 12:29S 33°16' E 151°50'1 0.7
2015-Apr-16 11:32S 33°17' E 151°51'0 0.5
2015-Apr-16 10:32S 33°17' E 151°51'1 0.7
2015-Apr-16 09:32S 33°17' E 151°52'1 0.9
2015-Apr-16 08:32S 33°16' E 151°53'1 0.9
2015-Apr-16 07:32S 33°16' E 151°54'1 0.9
2015-Apr-16 06:32S 33°17' E 151°55'1 1.0
2015-Apr-16 05:32S 33°16' E 151°56'1 1.0
2015-Apr-16 04:32S 33°17' E 151°58'2 2.0
2015-Apr-16 03:33S 33°16' E 151°60'1212.4
2015-Apr-16 02:34S 33°18' E 152°15'1313.0
2015-Apr-16 01:33S 33°27' E 152°26'3 2.7
2015-Apr-16 00:33S 33°27' E 152°29'1313.3
2015-Apr-15 23:33S 33°14' E 152°26'1313.3
2015-Apr-15 22:33S 33°00' E 152°24'1313.0
2015-Apr-15 21:33S 32°52' E 152°36'1413.7
2015-Apr-15 20:34S 32°44' E 152°50'1514.8
2015-Apr-15 19:33S 32°33' E 153°00'2315.6
2015-Apr-15 18:06S 32°14' E 153°16'  

Dump ship's entire track history